sensor_id;sensor_type;location;lat;lon;timestamp;pressure;altitude;pressure_sealevel;temperature
75428;BMP280;64008;55.612;37.698;2023-06-14T00:00:38;100053.75;;;16.32
75428;BMP280;64008;55.612;37.698;2023-06-14T00:03:07;100062.84;;;16.31
75428;BMP280;64008;55.612;37.698;2023-06-14T00:05:37;100058.34;;;16.42
75428;BMP280;64008;55.612;37.698;2023-06-14T00:08:09;100067.19;;;16.05
75428;BMP280;64008;55.612;37.698;2023-06-14T00:10:38;100063.88;;;15.88
75428;BMP280;64008;55.612;37.698;2023-06-14T00:13:06;100069.28;;;15.98
75428;BMP280;64008;55.612;37.698;2023-06-14T00:15:33;100065.59;;;16.04
75428;BMP280;64008;55.612;37.698;2023-06-14T00:17:58;100069.53;;;15.96
75428;BMP280;64008;55.612;37.698;2023-06-14T00:20:27;100069.22;;;15.88
75428;BMP280;64008;55.612;37.698;2023-06-14T00:22:53;100070.69;;;15.73
75428;BMP280;64008;55.612;37.698;2023-06-14T00:25:22;100075.13;;;15.95
75428;BMP280;64008;55.612;37.698;2023-06-14T00:27:47;100064.06;;;15.81
75428;BMP280;64008;55.612;37.698;2023-06-14T00:30:13;100065.66;;;15.77
75428;BMP280;64008;55.612;37.698;2023-06-14T00:32:39;100065.41;;;15.78
75428;BMP280;64008;55.612;37.698;2023-06-14T00:35:04;100067.31;;;15.83
75428;BMP280;64008;55.612;37.698;2023-06-14T00:37:30;100070.88;;;15.67
75428;BMP280;64008;55.612;37.698;2023-06-14T00:39:55;100068.47;;;15.65
75428;BMP280;64008;55.612;37.698;2023-06-14T00:42:25;100067.34;;;15.56
75428;BMP280;64008;55.612;37.698;2023-06-14T00:44:51;100078.00;;;15.56
75428;BMP280;64008;55.612;37.698;2023-06-14T00:47:16;100068.97;;;15.62
75428;BMP280;64008;55.612;37.698;2023-06-14T00:49:42;100072.97;;;15.59
75428;BMP280;64008;55.612;37.698;2023-06-14T00:52:07;100068.84;;;15.79
75428;BMP280;64008;55.612;37.698;2023-06-14T00:54:37;100066.53;;;15.55
75428;BMP280;64008;55.612;37.698;2023-06-14T00:57:03;100066.19;;;15.47
75428;BMP280;64008;55.612;37.698;2023-06-14T00:59:28;100071.56;;;15.57
75428;BMP280;64008;55.612;37.698;2023-06-14T01:01:54;100066.41;;;15.45
75428;BMP280;64008;55.612;37.698;2023-06-14T01:04:19;100061.09;;;15.72
75428;BMP280;64008;55.612;37.698;2023-06-14T01:09:33;100067.84;;;15.53
75428;BMP280;64008;55.612;37.698;2023-06-14T01:12:22;100069.75;;;15.57
75428;BMP280;64008;55.612;37.698;2023-06-14T01:14:50;100064.94;;;15.54
75428;BMP280;64008;55.612;37.698;2023-06-14T01:17:17;100077.19;;;15.55
75428;BMP280;64008;55.612;37.698;2023-06-14T01:19:43;100064.72;;;15.61
75428;BMP280;64008;55.612;37.698;2023-06-14T01:22:09;100074.19;;;15.52
75428;BMP280;64008;55.612;37.698;2023-06-14T01:24:35;100069.88;;;15.46
75428;BMP280;64008;55.612;37.698;2023-06-14T01:27:02;100065.84;;;15.38
75428;BMP280;64008;55.612;37.698;2023-06-14T01:29:29;100061.31;;;15.38
75428;BMP280;64008;55.612;37.698;2023-06-14T01:31:59;100070.03;;;15.34
75428;BMP280;64008;55.612;37.698;2023-06-14T01:34:26;100075.91;;;15.36
75428;BMP280;64008;55.612;37.698;2023-06-14T01:36:52;100073.00;;;15.37
75428;BMP280;64008;55.612;37.698;2023-06-14T01:39:20;100073.78;;;15.33
75428;BMP280;64008;55.612;37.698;2023-06-14T01:41:47;100064.31;;;15.20
75428;BMP280;64008;55.612;37.698;2023-06-14T01:44:14;100068.94;;;15.30
75428;BMP280;64008;55.612;37.698;2023-06-14T01:46:41;100063.31;;;15.26
75428;BMP280;64008;55.612;37.698;2023-06-14T01:49:07;100069.72;;;15.25
75428;BMP280;64008;55.612;37.698;2023-06-14T01:51:33;100054.41;;;15.43
75428;BMP280;64008;55.612;37.698;2023-06-14T01:53:59;100065.41;;;15.24
75428;BMP280;64008;55.612;37.698;2023-06-14T01:56:25;100078.56;;;15.36
75428;BMP280;64008;55.612;37.698;2023-06-14T01:58:51;100079.84;;;15.28
75428;BMP280;64008;55.612;37.698;2023-06-14T02:01:17;100077.69;;;15.25
75428;BMP280;64008;55.612;37.698;2023-06-14T02:03:44;100077.88;;;15.18
75428;BMP280;64008;55.612;37.698;2023-06-14T02:06:10;100068.31;;;15.23
75428;BMP280;64008;55.612;37.698;2023-06-14T02:08:36;100069.78;;;15.35
75428;BMP280;64008;55.612;37.698;2023-06-14T02:11:01;100072.38;;;15.52
75428;BMP280;64008;55.612;37.698;2023-06-14T02:13:27;100072.44;;;15.63
75428;BMP280;64008;55.612;37.698;2023-06-14T02:15:52;100062.13;;;15.39
75428;BMP280;64008;55.612;37.698;2023-06-14T02:18:20;100062.47;;;15.48
75428;BMP280;64008;55.612;37.698;2023-06-14T02:20:47;100072.97;;;15.59
75428;BMP280;64008;55.612;37.698;2023-06-14T02:23:12;100078.72;;;15.51
75428;BMP280;64008;55.612;37.698;2023-06-14T02:25:38;100070.56;;;15.63
75428;BMP280;64008;55.612;37.698;2023-06-14T02:28:05;100069.41;;;15.81
75428;BMP280;64008;55.612;37.698;2023-06-14T02:30:31;100071.81;;;15.82
75428;BMP280;64008;55.612;37.698;2023-06-14T02:32:57;100071.00;;;15.77
75428;BMP280;64008;55.612;37.698;2023-06-14T02:35:22;100068.16;;;15.94
75428;BMP280;64008;55.612;37.698;2023-06-14T02:37:52;100071.59;;;15.89
75428;BMP280;64008;55.612;37.698;2023-06-14T02:40:18;100068.84;;;15.79
75428;BMP280;64008;55.612;37.698;2023-06-14T02:42:43;100080.41;;;15.90
75428;BMP280;64008;55.612;37.698;2023-06-14T02:45:09;100077.03;;;15.99
75428;BMP280;64008;55.612;37.698;2023-06-14T02:47:35;100080.91;;;15.87
75428;BMP280;64008;55.612;37.698;2023-06-14T02:50:00;100076.31;;;16.14
75428;BMP280;64008;55.612;37.698;2023-06-14T02:52:26;100090.31;;;15.94
75428;BMP280;64008;55.612;37.698;2023-06-14T02:54:52;100076.75;;;16.01
75428;BMP280;64008;55.612;37.698;2023-06-14T02:57:17;100086.34;;;16.02
75428;BMP280;64008;55.612;37.698;2023-06-14T02:59:43;100081.13;;;16.17
75428;BMP280;64008;55.612;37.698;2023-06-14T03:02:08;100077.09;;;16.15
75428;BMP280;64008;55.612;37.698;2023-06-14T03:04:34;100083.50;;;16.14
75428;BMP280;64008;55.612;37.698;2023-06-14T03:07:02;100081.28;;;16.38
75428;BMP280;64008;55.612;37.698;2023-06-14T03:09:35;100077.78;;;16.37
75428;BMP280;64008;55.612;37.698;2023-06-14T03:12:01;100084.69;;;16.28
75428;BMP280;64008;55.612;37.698;2023-06-14T03:14:28;100078.84;;;16.31
75428;BMP280;64008;55.612;37.698;2023-06-14T03:16:54;100084.72;;;16.33
75428;BMP280;64008;55.612;37.698;2023-06-14T03:19:22;100082.91;;;16.44
75428;BMP280;64008;55.612;37.698;2023-06-14T03:21:48;100084.84;;;16.54
75428;BMP280;64008;55.612;37.698;2023-06-14T03:24:14;100079.53;;;16.69
75428;BMP280;64008;55.612;37.698;2023-06-14T03:26:41;100079.28;;;16.65
75428;BMP280;64008;55.612;37.698;2023-06-14T03:29:07;100080.31;;;16.59
75428;BMP280;64008;55.612;37.698;2023-06-14T03:31:34;100079.53;;;16.69
75428;BMP280;64008;55.612;37.698;2023-06-14T03:34:03;100075.25;;;16.68
75428;BMP280;64008;55.612;37.698;2023-06-14T03:36:28;100069.72;;;16.75
75428;BMP280;64008;55.612;37.698;2023-06-14T03:38:54;100078.50;;;16.75
75428;BMP280;64008;55.612;37.698;2023-06-14T03:41:20;100078.53;;;16.85
75428;BMP280;64008;55.612;37.698;2023-06-14T03:43:46;100083.88;;;16.85
75428;BMP280;64008;55.612;37.698;2023-06-14T03:46:11;100083.88;;;16.91
75428;BMP280;64008;55.612;37.698;2023-06-14T03:48:37;100070.31;;;16.97
75428;BMP280;64008;55.612;37.698;2023-06-14T03:51:04;100081.00;;;17.02
75428;BMP280;64008;55.612;37.698;2023-06-14T03:53:30;100077.25;;;17.03
75428;BMP280;64008;55.612;37.698;2023-06-14T03:55:55;100084.72;;;17.01
75428;BMP280;64008;55.612;37.698;2023-06-14T03:58:22;100076.44;;;17.03
75428;BMP280;64008;55.612;37.698;2023-06-14T04:00:47;100086.88;;;17.04
75428;BMP280;64008;55.612;37.698;2023-06-14T04:03:13;100085.81;;;17.11
75428;BMP280;64008;55.612;37.698;2023-06-14T04:05:40;100079.72;;;17.25
75428;BMP280;64008;55.612;37.698;2023-06-14T04:08:08;100085.59;;;17.22
75428;BMP280;64008;55.612;37.698;2023-06-14T04:10:34;100077.06;;;17.36
75428;BMP280;64008;55.612;37.698;2023-06-14T04:13:00;100081.59;;;17.30
75428;BMP280;64008;55.612;37.698;2023-06-14T04:15:25;100075.75;;;17.33
75428;BMP280;64008;55.612;37.698;2023-06-14T04:17:53;100075.16;;;17.11
75428;BMP280;64008;55.612;37.698;2023-06-14T04:20:22;100066.31;;;17.00
75428;BMP280;64008;55.612;37.698;2023-06-14T04:22:50;100075.66;;;17.07
75428;BMP280;64008;55.612;37.698;2023-06-14T04:25:15;100077.03;;;17.15
75428;BMP280;64008;55.612;37.698;2023-06-14T04:27:42;100073.31;;;17.21
75428;BMP280;64008;55.612;37.698;2023-06-14T04:30:08;100080.78;;;17.40
75428;BMP280;64008;55.612;37.698;2023-06-14T04:32:33;100087.75;;;17.51
75428;BMP280;64008;55.612;37.698;2023-06-14T04:35:03;100082.97;;;17.58
75428;BMP280;64008;55.612;37.698;2023-06-14T04:37:29;100066.91;;;17.22
75428;BMP280;64008;55.612;37.698;2023-06-14T04:39:55;100064.22;;;17.27
75428;BMP280;64008;55.612;37.698;2023-06-14T04:42:22;100073.84;;;17.44
75428;BMP280;64008;55.612;37.698;2023-06-14T04:44:50;100071.50;;;17.68
75428;BMP280;64008;55.612;37.698;2023-06-14T04:47:17;100063.72;;;17.66
75428;BMP280;64008;55.612;37.698;2023-06-14T04:49:42;100075.47;;;17.76
75428;BMP280;64008;55.612;37.698;2023-06-14T04:52:08;100074.41;;;17.71
75428;BMP280;64008;55.612;37.698;2023-06-14T04:54:36;100075.19;;;17.98
75428;BMP280;64008;55.612;37.698;2023-06-14T04:57:04;100075.72;;;17.94
75428;BMP280;64008;55.612;37.698;2023-06-14T04:59:31;100073.84;;;18.00
75428;BMP280;64008;55.612;37.698;2023-06-14T05:01:58;100075.44;;;18.11
75428;BMP280;64008;55.612;37.698;2023-06-14T05:04:25;100069.50;;;18.25
75428;BMP280;64008;55.612;37.698;2023-06-14T05:06:52;100066.56;;;18.26
75428;BMP280;64008;55.612;37.698;2023-06-14T05:09:20;100071.66;;;18.23
75428;BMP280;64008;55.612;37.698;2023-06-14T05:11:46;100072.16;;;18.30
75428;BMP280;64008;55.612;37.698;2023-06-14T05:14:13;100076.72;;;18.24
75428;BMP280;64008;55.612;37.698;2023-06-14T05:16:39;100073.00;;;18.20
75428;BMP280;64008;55.612;37.698;2023-06-14T05:19:05;100073.50;;;18.32
75428;BMP280;64008;55.612;37.698;2023-06-14T05:21:30;100069.22;;;18.31
75428;BMP280;64008;55.612;37.698;2023-06-14T05:23:58;100062.47;;;18.49
75428;BMP280;64008;55.612;37.698;2023-06-14T05:26:24;100060.75;;;18.69
75428;BMP280;64008;55.612;37.698;2023-06-14T05:28:57;100061.03;;;18.72
75428;BMP280;64008;55.612;37.698;2023-06-14T05:31:23;100069.63;;;18.69
75428;BMP280;64008;55.612;37.698;2023-06-14T05:33:50;100068.44;;;18.86
75428;BMP280;64008;55.612;37.698;2023-06-14T05:36:15;100064.75;;;18.76
75428;BMP280;64008;55.612;37.698;2023-06-14T05:38:41;100061.75;;;18.83
75428;BMP280;64008;55.612;37.698;2023-06-14T05:41:06;100058.78;;;18.85
75428;BMP280;64008;55.612;37.698;2023-06-14T05:43:32;100057.97;;;18.89
75428;BMP280;64008;55.612;37.698;2023-06-14T05:45:57;100062.91;;;19.16
75428;BMP280;64008;55.612;37.698;2023-06-14T05:48:23;100060.75;;;19.13
75428;BMP280;64008;55.612;37.698;2023-06-14T05:50:48;100063.25;;;19.05
75428;BMP280;64008;55.612;37.698;2023-06-14T05:53:14;100059.97;;;19.08
75428;BMP280;64008;55.612;37.698;2023-06-14T05:55:39;100059.44;;;19.16
75428;BMP280;64008;55.612;37.698;2023-06-14T05:58:05;100055.19;;;19.10
75428;BMP280;64008;55.612;37.698;2023-06-14T06:00:31;100058.06;;;19.18
75428;BMP280;64008;55.612;37.698;2023-06-14T06:02:57;100061.13;;;19.36
75428;BMP280;64008;55.612;37.698;2023-06-14T06:05:23;100060.16;;;19.56
75428;BMP280;64008;55.612;37.698;2023-06-14T06:07:49;100069.56;;;19.53
75428;BMP280;64008;55.612;37.698;2023-06-14T06:10:15;100069.25;;;19.60
75428;BMP280;64008;55.612;37.698;2023-06-14T06:12:41;100064.69;;;19.60
75428;BMP280;64008;55.612;37.698;2023-06-14T06:15:07;100069.66;;;19.72
75428;BMP280;64008;55.612;37.698;2023-06-14T06:17:37;100068.56;;;19.73
75428;BMP280;64008;55.612;37.698;2023-06-14T06:20:04;100067.56;;;19.69
75428;BMP280;64008;55.612;37.698;2023-06-14T06:22:31;100060.81;;;19.72
75428;BMP280;64008;55.612;37.698;2023-06-14T06:24:56;100067.94;;;19.81
75428;BMP280;64008;55.612;37.698;2023-06-14T06:27:22;100069.22;;;19.89
75428;BMP280;64008;55.612;37.698;2023-06-14T06:29:47;100068.25;;;20.04
75428;BMP280;64008;55.612;37.698;2023-06-14T06:32:16;100071.78;;;19.99
75428;BMP280;64008;55.612;37.698;2023-06-14T06:34:42;100062.91;;;20.04
75428;BMP280;64008;55.612;37.698;2023-06-14T06:37:07;100058.38;;;19.99
75428;BMP280;64008;55.612;37.698;2023-06-14T06:39:33;100066.66;;;20.03
75428;BMP280;64008;55.612;37.698;2023-06-14T06:41:58;100066.13;;;20.06
75428;BMP280;64008;55.612;37.698;2023-06-14T06:44:23;100068.19;;;20.33
75428;BMP280;64008;55.612;37.698;2023-06-14T06:46:49;100068.19;;;20.33
75428;BMP280;64008;55.612;37.698;2023-06-14T06:49:15;100056.59;;;20.38
75428;BMP280;64008;55.612;37.698;2023-06-14T06:51:43;100062.34;;;20.50
75428;BMP280;64008;55.612;37.698;2023-06-14T06:54:23;100063.06;;;20.56
75428;BMP280;64008;55.612;37.698;2023-06-14T06:56:49;100054.53;;;20.53
75428;BMP280;64008;55.612;37.698;2023-06-14T06:59:14;100061.63;;;20.63
75428;BMP280;64008;55.612;37.698;2023-06-14T07:01:42;100054.97;;;20.61
75428;BMP280;64008;55.612;37.698;2023-06-14T07:04:07;100051.44;;;20.65
75428;BMP280;64008;55.612;37.698;2023-06-14T07:06:33;100055.75;;;20.80
75428;BMP280;64008;55.612;37.698;2023-06-14T07:08:58;100053.72;;;20.72
75428;BMP280;64008;55.612;37.698;2023-06-14T07:11:27;100060.09;;;20.76
75428;BMP280;64008;55.612;37.698;2023-06-14T07:13:52;100054.13;;;20.65
75428;BMP280;64008;55.612;37.698;2023-06-14T07:16:18;100058.97;;;20.82
75428;BMP280;64008;55.612;37.698;2023-06-14T07:18:43;100053.50;;;20.87
75428;BMP280;64008;55.612;37.698;2023-06-14T07:21:09;100054.13;;;20.65
75428;BMP280;64008;55.612;37.698;2023-06-14T07:23:35;100047.13;;;20.64
75428;BMP280;64008;55.612;37.698;2023-06-14T07:26:01;100038.94;;;20.74
75428;BMP280;64008;55.612;37.698;2023-06-14T07:28:26;100046.00;;;20.84
75428;BMP280;64008;55.612;37.698;2023-06-14T07:30:52;100041.53;;;20.80
75428;BMP280;64008;55.612;37.698;2023-06-14T07:33:17;100044.34;;;20.88
75428;BMP280;64008;55.612;37.698;2023-06-14T07:35:43;100052.25;;;20.99
75428;BMP280;64008;55.612;37.698;2023-06-14T07:38:08;100048.03;;;20.92
75428;BMP280;64008;55.612;37.698;2023-06-14T07:40:34;100039.88;;;21.16
75428;BMP280;64008;55.612;37.698;2023-06-14T07:42:59;100045.81;;;21.13
75428;BMP280;64008;55.612;37.698;2023-06-14T07:45:26;100042.41;;;21.27
75428;BMP280;64008;55.612;37.698;2023-06-14T07:47:52;100044.25;;;21.59
75428;BMP280;64008;55.612;37.698;2023-06-14T07:50:17;100049.06;;;21.62
75428;BMP280;64008;55.612;37.698;2023-06-14T07:52:43;100050.97;;;21.89
75428;BMP280;64008;55.612;37.698;2023-06-14T07:55:09;100046.66;;;21.88
75428;BMP280;64008;55.612;37.698;2023-06-14T07:57:34;100039.47;;;21.83
75428;BMP280;64008;55.612;37.698;2023-06-14T08:00:00;100038.31;;;21.90
75428;BMP280;64008;55.612;37.698;2023-06-14T08:02:26;100041.69;;;21.81
75428;BMP280;64008;55.612;37.698;2023-06-14T08:04:51;100044.97;;;21.92
75428;BMP280;64008;55.612;37.698;2023-06-14T08:07:17;100040.81;;;21.86
75428;BMP280;64008;55.612;37.698;2023-06-14T08:09:43;100044.09;;;22.11
75428;BMP280;64008;55.612;37.698;2023-06-14T08:12:09;100039.47;;;22.11
75428;BMP280;64008;55.612;37.698;2023-06-14T08:14:39;100046.06;;;22.19
75428;BMP280;64008;55.612;37.698;2023-06-14T08:17:04;100040.88;;;22.22
75428;BMP280;64008;55.612;37.698;2023-06-14T08:19:30;100041.44;;;22.33
75428;BMP280;64008;55.612;37.698;2023-06-14T08:21:56;100041.44;;;22.19
75428;BMP280;64008;55.612;37.698;2023-06-14T08:24:22;100041.69;;;22.23
75428;BMP280;64008;55.612;37.698;2023-06-14T08:26:52;100035.97;;;22.24
75428;BMP280;64008;55.612;37.698;2023-06-14T08:29:18;100039.94;;;22.41
75428;BMP280;64008;55.612;37.698;2023-06-14T08:31:44;100041.19;;;22.57
75428;BMP280;64008;55.612;37.698;2023-06-14T08:34:09;100027.72;;;22.57
75428;BMP280;64008;55.612;37.698;2023-06-14T08:36:35;100031.81;;;22.77
75428;BMP280;64008;55.612;37.698;2023-06-14T08:39:01;100033.53;;;22.95
75428;BMP280;64008;55.612;37.698;2023-06-14T08:41:28;100036.59;;;22.80
75428;BMP280;64008;55.612;37.698;2023-06-14T08:43:55;100035.75;;;22.71
75428;BMP280;64008;55.612;37.698;2023-06-14T08:46:21;100035.50;;;22.81
75428;BMP280;64008;55.612;37.698;2023-06-14T08:48:51;100035.50;;;22.81
75428;BMP280;64008;55.612;37.698;2023-06-14T08:51:20;100031.06;;;23.08
75428;BMP280;64008;55.612;37.698;2023-06-14T08:53:57;100019.91;;;23.32
75428;BMP280;64008;55.612;37.698;2023-06-14T08:56:26;100015.03;;;23.34
75428;BMP280;64008;55.612;37.698;2023-06-14T08:58:53;100017.28;;;23.40
75428;BMP280;64008;55.612;37.698;2023-06-14T09:01:19;100017.28;;;23.40
75428;BMP280;64008;55.612;37.698;2023-06-14T09:03:47;100014.84;;;23.30
75428;BMP280;64008;55.612;37.698;2023-06-14T09:06:13;100017.00;;;23.51
75428;BMP280;64008;55.612;37.698;2023-06-14T09:11:07;100007.66;;;23.66
75428;BMP280;64008;55.612;37.698;2023-06-14T09:13:33;100007.66;;;23.66
75428;BMP280;64008;55.612;37.698;2023-06-14T09:15:59;100002.31;;;23.74
75428;BMP280;64008;55.612;37.698;2023-06-14T09:18:39;100003.00;;;24.06
75428;BMP280;64008;55.612;37.698;2023-06-14T09:21:06;100003.00;;;24.06
75428;BMP280;64008;55.612;37.698;2023-06-14T09:23:39;100004.28;;;24.26
75428;BMP280;64008;55.612;37.698;2023-06-14T09:26:10;100002.22;;;24.40
75428;BMP280;64008;55.612;37.698;2023-06-14T09:28:36;99992.97;;;24.59
75428;BMP280;64008;55.612;37.698;2023-06-14T09:31:02;100004.41;;;24.64
75428;BMP280;64008;55.612;37.698;2023-06-14T09:33:27;100007.81;;;24.99
75428;BMP280;64008;55.612;37.698;2023-06-14T09:35:56;100010.50;;;25.08
75428;BMP280;64008;55.612;37.698;2023-06-14T09:38:21;99998.69;;;25.13
75428;BMP280;64008;55.612;37.698;2023-06-14T09:40:47;100013.06;;;25.34
75428;BMP280;64008;55.612;37.698;2023-06-14T09:43:12;100013.06;;;25.34
75428;BMP280;64008;55.612;37.698;2023-06-14T09:45:38;99998.63;;;25.60
75428;BMP280;64008;55.612;37.698;2023-06-14T09:48:11;99997.94;;;25.72
75428;BMP280;64008;55.612;37.698;2023-06-14T09:50:36;99988.69;;;25.94
75428;BMP280;64008;55.612;37.698;2023-06-14T09:53:11;99984.28;;;26.22
75428;BMP280;64008;55.612;37.698;2023-06-14T09:55:37;99984.28;;;26.22
75428;BMP280;64008;55.612;37.698;2023-06-14T09:58:06;99983.69;;;26.37
75428;BMP280;64008;55.612;37.698;2023-06-14T10:00:33;99982.91;;;26.49
75428;BMP280;64008;55.612;37.698;2023-06-14T10:03:14;99979.09;;;26.50
75428;BMP280;64008;55.612;37.698;2023-06-14T10:05:43;99966.84;;;26.77
75428;BMP280;64008;55.612;37.698;2023-06-14T10:08:14;99966.84;;;26.77
75428;BMP280;64008;55.612;37.698;2023-06-14T10:10:43;99976.69;;;27.06
75428;BMP280;64008;55.612;37.698;2023-06-14T10:13:10;99968.88;;;27.17
75428;BMP280;64008;55.612;37.698;2023-06-14T10:15:52;99976.06;;;27.50
75428;BMP280;64008;55.612;37.698;2023-06-14T10:19:24;99976.06;;;27.50
75428;BMP280;64008;55.612;37.698;2023-06-14T10:21:35;99977.69;;;27.39
75428;BMP280;64008;55.612;37.698;2023-06-14T10:24:06;99966.31;;;27.21
75428;BMP280;64008;55.612;37.698;2023-06-14T10:26:32;99966.31;;;27.21
75428;BMP280;64008;55.612;37.698;2023-06-14T10:29:07;99962.16;;;27.51
75428;BMP280;64008;55.612;37.698;2023-06-14T10:31:50;99962.16;;;27.51
75428;BMP280;64008;55.612;37.698;2023-06-14T10:34:31;99954.09;;;27.67
75428;BMP280;64008;55.612;37.698;2023-06-14T10:37:05;99958.91;;;27.46
75428;BMP280;64008;55.612;37.698;2023-06-14T10:39:33;99949.63;;;27.59
75428;BMP280;64008;55.612;37.698;2023-06-14T10:42:02;99949.63;;;27.59
75428;BMP280;64008;55.612;37.698;2023-06-14T10:46:56;99942.81;;;27.93
75428;BMP280;64008;55.612;37.698;2023-06-14T10:49:45;99941.88;;;27.89
75428;BMP280;64008;55.612;37.698;2023-06-14T10:52:12;99946.25;;;28.06
75428;BMP280;64008;55.612;37.698;2023-06-14T10:55:05;99939.22;;;28.05
75428;BMP280;64008;55.612;37.698;2023-06-14T10:57:43;99934.69;;;28.09
75428;BMP280;64008;55.612;37.698;2023-06-14T11:00:11;99946.53;;;28.33
75428;BMP280;64008;55.612;37.698;2023-06-14T11:05:26;99928.41;;;28.53
75428;BMP280;64008;55.612;37.698;2023-06-14T11:10:36;99937.34;;;28.69
75428;BMP280;64008;55.612;37.698;2023-06-14T11:13:03;99933.66;;;28.45
75428;BMP280;64008;55.612;37.698;2023-06-14T11:15:33;99930.84;;;28.42
75428;BMP280;64008;55.612;37.698;2023-06-14T11:18:06;99922.88;;;28.65
75428;BMP280;64008;55.612;37.698;2023-06-14T11:20:34;99922.84;;;28.81
75428;BMP280;64008;55.612;37.698;2023-06-14T11:23:01;99927.44;;;28.77
75428;BMP280;64008;55.612;37.698;2023-06-14T11:25:26;99917.94;;;28.86
75428;BMP280;64008;55.612;37.698;2023-06-14T11:27:53;99921.06;;;29.04
75428;BMP280;64008;55.612;37.698;2023-06-14T11:30:19;99928.78;;;29.02
75428;BMP280;64008;55.612;37.698;2023-06-14T11:32:48;99918.44;;;29.11
75428;BMP280;64008;55.612;37.698;2023-06-14T11:35:16;99915.81;;;28.95
75428;BMP280;64008;55.612;37.698;2023-06-14T11:37:42;99916.88;;;29.26
75428;BMP280;64008;55.612;37.698;2023-06-14T11:40:08;99908.97;;;29.60
75428;BMP280;64008;55.612;37.698;2023-06-14T11:42:36;99908.53;;;29.58
75428;BMP280;64008;55.612;37.698;2023-06-14T11:45:02;99908.84;;;29.53
75428;BMP280;64008;55.612;37.698;2023-06-14T11:47:32;99902.50;;;29.68
75428;BMP280;64008;55.612;37.698;2023-06-14T11:49:59;99897.44;;;29.66
75428;BMP280;64008;55.612;37.698;2023-06-14T11:52:25;99898.72;;;29.73
75428;BMP280;64008;55.612;37.698;2023-06-14T11:54:50;99891.03;;;29.78
75428;BMP280;64008;55.612;37.698;2023-06-14T11:57:18;99896.53;;;29.82
75428;BMP280;64008;55.612;37.698;2023-06-14T11:59:44;99879.97;;;29.90
75428;BMP280;64008;55.612;37.698;2023-06-14T12:02:21;99884.19;;;29.88
75428;BMP280;64008;55.612;37.698;2023-06-14T12:04:47;99887.56;;;30.04
75428;BMP280;64008;55.612;37.698;2023-06-14T12:07:15;99888.97;;;29.95
75428;BMP280;64008;55.612;37.698;2023-06-14T12:10:03;99871.41;;;30.15
75428;BMP280;64008;55.612;37.698;2023-06-14T12:12:30;99871.84;;;30.17
75428;BMP280;64008;55.612;37.698;2023-06-14T12:14:56;99876.44;;;30.39
75428;BMP280;64008;55.612;37.698;2023-06-14T12:17:22;99876.31;;;30.29
75428;BMP280;64008;55.612;37.698;2023-06-14T12:19:49;99882.50;;;30.26
75428;BMP280;64008;55.612;37.698;2023-06-14T12:22:16;99873.59;;;30.29
75428;BMP280;64008;55.612;37.698;2023-06-14T12:24:45;99868.88;;;30.26
75428;BMP280;64008;55.612;37.698;2023-06-14T12:27:10;99875.66;;;30.39
75428;BMP280;64008;55.612;37.698;2023-06-14T12:29:42;99865.88;;;30.34
75428;BMP280;64008;55.612;37.698;2023-06-14T12:32:11;99865.88;;;30.34
75428;BMP280;64008;55.612;37.698;2023-06-14T12:34:36;99862.03;;;30.39
75428;BMP280;64008;55.612;37.698;2023-06-14T12:37:02;99865.94;;;30.15
75428;BMP280;64008;55.612;37.698;2023-06-14T12:39:30;99855.31;;;30.59
75428;BMP280;64008;55.612;37.698;2023-06-14T12:41:57;99855.31;;;30.59
75428;BMP280;64008;55.612;37.698;2023-06-14T12:44:22;99860.16;;;30.17
75428;BMP280;64008;55.612;37.698;2023-06-14T12:46:48;99845.63;;;30.35
75428;BMP280;64008;55.612;37.698;2023-06-14T12:49:16;99851.78;;;30.55
75428;BMP280;64008;55.612;37.698;2023-06-14T12:51:42;99847.25;;;30.67
75428;BMP280;64008;55.612;37.698;2023-06-14T12:54:07;99845.31;;;30.67
75428;BMP280;64008;55.612;37.698;2023-06-14T12:56:33;99848.06;;;30.71
75428;BMP280;64008;55.612;37.698;2023-06-14T12:58:59;99827.94;;;30.82
75428;BMP280;64008;55.612;37.698;2023-06-14T13:01:24;99844.38;;;30.86
75428;BMP280;64008;55.612;37.698;2023-06-14T13:03:50;99845.94;;;30.87
75428;BMP280;64008;55.612;37.698;2023-06-14T13:06:17;99839.47;;;30.69
75428;BMP280;64008;55.612;37.698;2023-06-14T13:08:42;99849.63;;;30.72
75428;BMP280;64008;55.612;37.698;2023-06-14T13:11:08;99840.38;;;30.80
75428;BMP280;64008;55.612;37.698;2023-06-14T13:13:33;99840.34;;;30.76
75428;BMP280;64008;55.612;37.698;2023-06-14T13:15:59;99840.34;;;30.76
75428;BMP280;64008;55.612;37.698;2023-06-14T13:18:25;99840.28;;;30.69
75428;BMP280;64008;55.612;37.698;2023-06-14T13:20:51;99829.81;;;30.75
75428;BMP280;64008;55.612;37.698;2023-06-14T13:23:16;99836.34;;;30.67
75428;BMP280;64008;55.612;37.698;2023-06-14T13:25:42;99826.34;;;30.78
75428;BMP280;64008;55.612;37.698;2023-06-14T13:28:07;99829.19;;;30.58
75428;BMP280;64008;55.612;37.698;2023-06-14T13:30:33;99829.81;;;30.75
75428;BMP280;64008;55.612;37.698;2023-06-14T13:32:59;99826.66;;;30.73
75428;BMP280;64008;55.612;37.698;2023-06-14T13:35:25;99833.28;;;30.72
75428;BMP280;64008;55.612;37.698;2023-06-14T13:37:51;99818.47;;;30.73
75428;BMP280;64008;55.612;37.698;2023-06-14T13:40:16;99814.44;;;30.93
75428;BMP280;64008;55.612;37.698;2023-06-14T13:42:42;99823.34;;;30.86
75428;BMP280;64008;55.612;37.698;2023-06-14T13:45:08;99819.72;;;30.79
75428;BMP280;64008;55.612;37.698;2023-06-14T13:47:34;99811.78;;;31.00
75428;BMP280;64008;55.612;37.698;2023-06-14T13:49:59;99816.34;;;30.89
75428;BMP280;64008;55.612;37.698;2023-06-14T13:52:25;99826.25;;;31.04
75428;BMP280;64008;55.612;37.698;2023-06-14T13:54:51;99826.25;;;31.04
75428;BMP280;64008;55.612;37.698;2023-06-14T13:57:17;99816.13;;;30.71
75428;BMP280;64008;55.612;37.698;2023-06-14T13:59:43;99816.69;;;30.84
75428;BMP280;64008;55.612;37.698;2023-06-14T14:02:12;99807.72;;;30.87